Time;durP1;ratioP1;P1;durP2;ratioP2;P2;SDS_P1;SDS_P2;PMS_P1;PMS_P2;Temp;Humidity;BMP_temperature;BMP_pressure;BME280_temperature;BME280_humidity;BME280_pressure;Samples;Min_cycle;Max_cycle;Signal;HPM_P1;HPM_P2
2022/02/05 00:01:12;;;;;;;4.03;1.35;;;;;;;18.36;46.22;101524.59;5013247;28;20136;-67
2022/02/05 00:03:44;;;;;;;5.50;2.83;;;;;;;18.34;46.45;101533.56;5013374;28;20084;-67
2022/02/05 00:06:12;;;;;;;6.53;1.63;;;;;;;18.30;46.31;101536.41;5012276;28;20022;-67
2022/02/05 00:14:10;;;;;;;4.65;1.48;;;;;;;18.26;46.45;101542.03;5012342;28;20291;-67
2022/02/05 00:43:12;;;;;;;5.10;1.70;;;;;;;18.04;46.46;101572.56;5012079;28;20038;-66
2022/02/05 00:45:41;;;;;;;5.88;1.70;;;;;;;18.03;46.23;101577.94;5012627;28;20267;-67
2022/02/05 00:48:07;;;;;;;3.75;1.50;;;;;;;18.01;46.64;101574.56;5011698;28;20029;-67
2022/02/05 00:50:36;;;;;;;5.80;2.00;;;;;;;17.98;46.14;101578.25;5012453;28;20030;-66
2022/02/05 00:53:08;;;;;;;5.20;1.40;;;;;;;17.97;46.26;101586.28;5012809;28;20077;-67
2022/02/05 00:55:36;;;;;;;5.93;1.60;;;;;;;17.93;46.33;101577.75;5011762;28;20458;-67
2022/02/05 00:58:03;;;;;;;5.38;1.67;;;;;;;17.93;46.23;101588.28;5012552;28;20124;-67
2022/02/05 01:00:30;;;;;;;4.85;1.60;;;;;;;17.91;46.13;101584.88;5012082;28;20026;-68
2022/02/05 01:02:56;;;;;;;6.43;1.98;;;;;;;17.90;46.33;101596.41;5011768;28;20425;-68
2022/02/05 01:05:22;;;;;;;7.40;1.40;;;;;;;17.87;46.31;101589.50;5015882;28;20018;-68
2022/02/05 01:07:48;;;;;;;5.45;1.77;;;;;;;17.87;46.30;101592.16;5016408;28;20050;-67
2022/02/05 01:10:14;;;;;;;3.92;1.58;;;;;;;17.85;46.18;101601.09;5015366;28;20509;-68
2022/02/05 01:12:44;;;;;;;5.40;1.67;;;;;;;17.83;46.51;101600.38;5016626;28;20034;-68
2022/02/05 01:15:09;;;;;;;5.60;2.08;;;;;;;17.82;45.98;101606.59;5015977;28;20072;-69
2022/02/05 01:17:44;;;;;;;4.68;1.45;;;;;;;17.81;46.01;101610.19;5015523;28;20451;-67
2022/02/05 01:23:01;;;;;;;4.30;1.60;;;;;;;17.76;46.06;101618.41;5015870;28;20048;-68
2022/02/05 01:25:32;;;;;;;5.90;1.48;;;;;;;17.75;45.97;101630.75;5015541;28;20395;-67
2022/02/05 01:28:04;;;;;;;5.40;1.58;;;;;;;17.73;46.42;101627.34;5016076;28;20034;-68
2022/02/05 01:30:34;;;;;;;4.63;1.55;;;;;;;17.73;46.39;101639.69;5014993;28;20434;-68
2022/02/05 01:33:20;;;;;;;5.50;1.67;;;;;;;17.71;46.06;101631.88;5015997;28;20053;-68
2022/02/05 01:52:21;;;;;;;;;;;;;;;17.58;46.23;101657.38;5015135;28;20283;-68
2022/02/05 01:57:41;;;;;;;7.35;1.90;;;;;;;17.57;46.07;101667.06;5015169;28;20038;-67
2022/02/05 02:05:52;;;;;;;5.75;1.63;;;;;;;17.65;46.47;101665.72;5014609;28;20508;-68
2022/02/05 02:16:47;;;;;;;5.20;2.30;;;;;;;17.74;46.43;101670.41;5014591;28;20026;-67
2022/02/05 02:19:17;;;;;;;5.05;1.60;;;;;;;17.75;46.05;101683.47;5014505;28;20501;-67
2022/02/05 02:21:59;;;;;;;5.30;1.50;;;;;;;17.76;45.72;101685.16;5015086;28;20065;-67
2022/02/05 02:24:36;;;;;;;6.38;1.80;;;;;;;17.77;45.87;101688.66;5014837;28;20105;-67
2022/02/05 02:27:17;;;;;;;5.75;1.65;;;;;;;17.78;45.76;101685.03;5014508;28;20053;-67
2022/02/05 02:32:08;;;;;;;6.10;1.75;;;;;;;17.79;45.66;101691.19;5014482;28;20112;-67
2022/02/05 02:34:42;;;;;;;5.43;1.88;;;;;;;17.80;45.62;101698.13;5013963;28;20025;-67
2022/02/05 02:37:15;;;;;;;4.82;1.77;;;;;;;17.80;45.37;101698.13;5014317;28;20501;-67
2022/02/05 02:42:25;;;;;;;5.63;1.75;;;;;;;17.79;44.97;101712.28;5014150;28;20125;-67
2022/02/05 02:44:51;;;;;;;4.38;1.65;;;;;;;17.76;45.12;101714.16;5014619;28;20116;-68
2022/02/05 02:47:16;;;;;;;4.63;1.60;;;;;;;17.77;45.29;101717.66;5013461;28;20076;-68
2022/02/05 02:57:49;;;;;;;4.95;1.70;;;;;;;17.76;45.58;101715.94;5014413;28;20228;-68
2022/02/05 03:00:14;;;;;;;5.93;1.75;;;;;;;17.77;45.40;101726.41;5014371;28;20382;-68
2022/02/05 03:02:39;;;;;;;6.18;1.70;;;;;;;17.77;45.53;101723.75;5013601;28;20017;-69
2022/02/05 03:05:05;;;;;;;4.68;1.60;;;;;;;17.80;45.67;101732.41;5014294;28;20418;-68
2022/02/05 03:07:30;;;;;;;5.45;1.95;;;;;;;17.76;45.18;101721.22;5013759;28;20026;-68
2022/02/05 03:09:56;;;;;;;5.50;2.27;;;;;;;17.80;45.64;101733.28;5013323;28;20036;-68
2022/02/05 03:12:23;;;;;;;4.13;1.48;;;;;;;17.81;45.11;101734.94;5013569;28;20541;-68
2022/02/05 03:14:49;;;;;;;5.82;2.03;;;;;;;17.81;45.39;101739.38;5013770;28;20038;-68
2022/02/05 03:17:16;;;;;;;5.75;1.80;;;;;;;17.82;44.96;101738.44;5013425;28;20037;-68
2022/02/05 03:19:48;;;;;;;6.97;1.92;;;;;;;17.82;45.18;101746.34;5013761;28;20060;-68
2022/02/05 03:22:15;;;;;;;6.28;2.10;;;;;;;17.80;45.06;101743.81;5013186;28;20026;-68
2022/02/05 03:24:40;;;;;;;4.97;1.55;;;;;;;17.80;45.19;101737.69;5013810;28;20412;-68
2022/02/05 03:27:07;;;;;;;6.75;1.73;;;;;;;17.79;45.13;101742.13;5013388;28;20046;-68
2022/02/05 03:29:36;;;;;;;5.32;1.60;;;;;;;17.79;44.86;101744.75;5013051;28;20071;-68
2022/02/05 03:32:04;;;;;;;4.55;1.73;;;;;;;17.78;45.10;101748.31;5013787;28;20030;-68
2022/02/05 03:34:29;;;;;;;5.50;1.88;;;;;;;17.78;45.00;101745.69;5013129;28;20636;-68
2022/02/05 03:36:55;;;;;;;5.30;1.70;;;;;;;17.77;44.76;101758.03;5012744;28;20178;-68
2022/02/05 03:39:21;;;;;;;5.38;1.52;;;;;;;17.76;44.69;101761.59;5013368;28;20052;-68
2022/02/05 03:41:49;;;;;;;6.10;1.88;;;;;;;17.77;44.85;101770.38;5013728;28;20490;-68
2022/02/05 03:44:14;;;;;;;4.80;1.77;;;;;;;17.76;45.00;101769.50;5012296;28;20525;-68
2022/02/05 03:46:40;;;;;;;6.20;1.80;;;;;;;17.75;45.16;101769.63;5013365;28;20034;-68
2022/02/05 03:49:05;;;;;;;7.38;1.77;;;;;;;17.77;45.24;101765.94;5013505;28;20092;-66
2022/02/05 03:51:30;;;;;;;5.05;1.60;;;;;;;17.77;45.27;101765.94;5012116;28;20033;-68
2022/02/05 03:53:56;;;;;;;5.43;1.90;;;;;;;17.79;45.13;101765.84;5013455;28;20030;-68
2022/02/05 03:56:21;;;;;;;6.35;1.92;;;;;;;17.78;45.03;101769.41;5013091;28;20030;-68
2022/02/05 03:58:47;;;;;;;8.23;1.95;;;;;;;17.79;44.79;101759.75;5012658;28;20037;-68
2022/02/05 04:01:13;;;;;;;6.90;2.03;;;;;;;17.80;44.79;101774.59;5012832;28;20026;-68
2022/02/05 04:03:38;;;;;;;7.90;2.22;;;;;;;17.80;44.87;101766.69;5013346;28;20050;-68
2022/02/05 04:06:04;;;;;;;5.13;1.83;;;;;;;17.80;44.47;101771.97;5012326;28;20030;-68
2022/02/05 04:08:29;;;;;;;4.90;1.50;;;;;;;17.78;45.06;101769.41;5012636;28;20441;-68
2022/02/05 04:11:07;;;;;;;6.32;1.60;;;;;;;17.80;45.17;101771.97;5013323;28;20494;-66
2022/02/05 04:16:22;;;;;;;5.93;1.73;;;;;;;17.81;44.80;101776.28;5013029;28;20064;-68
2022/02/05 04:18:52;;;;;;;4.38;1.48;;;;;;;17.83;44.85;101780.53;5012271;28;20314;-68
2022/02/05 04:21:18;;;;;;;5.28;1.90;;;;;;;17.82;45.13;101781.47;5012818;28;20046;-68
2022/02/05 04:23:44;;;;;;;6.20;1.95;;;;;;;17.82;44.84;101778.00;5012769;28;20052;-68
2022/02/05 04:26:09;;;;;;;5.40;1.58;;;;;;;17.83;44.58;101790.22;5011802;28;20049;-68
2022/02/05 04:28:35;;;;;;;6.45;1.92;;;;;;;17.84;44.36;101800.66;5012836;28;20022;-67
2022/02/05 04:31:01;;;;;;;4.85;1.63;;;;;;;17.84;44.81;101805.94;5012773;28;20045;-68
2022/02/05 04:33:28;;;;;;;4.78;1.73;;;;;;;17.83;44.59;101799.00;5011872;28;20052;-68
2022/02/05 04:35:54;;;;;;;4.65;1.60;;;;;;;17.83;44.12;101798.13;5012945;28;20059;-67
2022/02/05 04:38:20;;;;;;;5.65;1.80;;;;;;;17.83;44.08;101796.34;5012064;28;20116;-67
2022/02/05 04:40:57;;;;;;;6.93;1.88;;;;;;;17.82;44.56;101789.38;5012060;28;20038;-67
2022/02/05 04:46:15;;;;;;;5.40;1.70;;;;;;;17.82;44.89;101801.72;5012823;28;20029;-68
2022/02/05 04:51:43;;;;;;;7.22;2.17;;;;;;;17.83;44.76;101811.31;5012267;28;20101;-68
2022/02/05 04:56:57;;;;;;;5.65;1.77;;;;;;;17.84;44.37;101820.94;5012687;28;20517;-68
2022/02/05 05:04:48;;;;;;;5.75;1.70;;;;;;;17.83;43.96;101821.84;5012246;28;20180;-67
2022/02/05 05:10:22;;;;;;;7.97;2.53;;;;;;;17.81;44.11;101821.94;5012224;28;20481;-67
2022/02/05 05:20:39;;;;;;;5.40;1.80;;;;;;;17.82;44.60;101833.38;5012194;28;20037;-67
2022/02/05 05:23:04;;;;;;;6.45;1.50;;;;;;;17.83;44.26;101837.69;5011621;28;20029;-67
2022/02/05 05:25:30;;;;;;;6.03;1.83;;;;;;;17.85;44.56;101838.41;5011761;28;20343;-67
2022/02/05 05:27:58;;;;;;;6.37;1.80;;;;;;;17.85;44.58;101846.31;5012442;28;20346;-67
2022/02/05 05:30:23;;;;;;;4.43;1.42;;;;;;;17.86;44.59;101850.66;5010976;28;20751;-67
2022/02/05 05:32:48;;;;;;;5.00;1.67;;;;;;;17.84;44.36;101847.28;5012307;28;20116;-67
2022/02/05 05:35:20;;;;;;;5.47;1.50;;;;;;;17.84;44.41;101842.03;5011854;28;20026;-67
2022/02/05 05:37:50;;;;;;;4.45;1.50;;;;;;;17.85;44.24;101846.31;5011502;28;20294;-68
2022/02/05 05:40:15;;;;;;;5.13;1.65;;;;;;;17.83;44.42;101848.22;5011928;28;20029;-67
2022/02/05 05:42:45;;;;;;;5.18;1.50;;;;;;;17.82;44.79;101851.81;5011277;28;20046;-67
2022/02/05 05:48:54;;;;;;;6.50;1.63;;;;;;;17.84;44.45;101861.31;5011226;28;20389;-68
2022/02/05 05:50:59;;;;;;;4.07;1.58;;;;;;;17.85;44.47;101872.69;5013297;28;20034;-67
2022/02/05 05:53:26;;;;;;;4.70;1.65;;;;;;;17.85;44.18;101865.66;5015410;28;20033;-67
2022/02/05 05:55:52;;;;;;;6.53;1.75;;;;;;;17.85;44.46;101872.69;5015483;28;20022;-67
2022/02/05 05:58:19;;;;;;;6.28;1.90;;;;;;;17.85;44.53;101872.69;5014315;28;20042;-68
2022/02/05 06:00:45;;;;;;;6.32;2.15;;;;;;;17.85;44.33;101878.84;5015285;28;20512;-67
2022/02/05 06:03:11;;;;;;;5.75;1.73;;;;;;;17.84;44.04;101879.78;5022125;28;20108;-67
2022/02/05 06:05:36;;;;;;;4.35;1.50;;;;;;;17.85;44.42;101875.34;5023821;28;20022;-67
2022/02/05 06:08:04;;;;;;;5.80;1.70;;;;;;;17.87;45.08;101876.94;5024967;28;20452;-67
2022/02/05 06:10:29;;;;;;;6.07;1.60;;;;;;;17.89;45.83;101880.34;5025451;28;20026;-67
2022/02/05 06:12:55;;;;;;;6.75;1.50;;;;;;;17.92;45.97;101892.50;5027613;28;20033;-67
2022/02/05 06:15:20;;;;;;;5.75;1.70;;;;;;;17.94;46.16;101882.69;5029479;28;20065;-67
2022/02/05 06:17:48;;;;;;;5.78;1.42;;;;;;;17.97;46.05;101885.13;5028568;28;20029;-68
2022/02/05 06:20:13;;;;;;;6.50;1.60;;;;;;;17.99;46.18;101888.53;5016353;28;20026;-67
2022/02/05 06:22:38;;;;;;;5.63;1.60;;;;;;;18.03;46.77;101897.94;5016086;28;20028;-68
2022/02/05 06:25:04;;;;;;;5.32;1.70;;;;;;;18.06;46.92;101895.09;5014929;28;20029;-68
2022/02/05 06:27:30;;;;;;;5.82;1.40;;;;;;;18.07;46.71;101896.81;5015087;28;20033;-68
2022/02/05 06:29:58;;;;;;;6.73;1.70;;;;;;;18.12;46.38;101902.63;5015273;28;20469;-67
2022/02/05 06:32:23;;;;;;;5.35;1.55;;;;;;;18.14;46.18;101902.53;5014611;28;20378;-67
2022/02/05 06:34:48;;;;;;;5.72;2.22;;;;;;;18.15;46.36;101891.03;5016568;28;20053;-67
2022/02/05 06:37:14;;;;;;;5.30;1.60;;;;;;;18.17;46.14;101891.78;5014699;28;20026;-66
2022/02/05 06:39:39;;;;;;;4.35;1.50;;;;;;;18.18;45.98;101888.19;5014199;28;20026;-67
2022/02/05 06:42:05;;;;;;;4.93;1.50;;;;;;;18.18;45.72;101893.44;5014889;28;20456;-67
2022/02/05 06:44:30;;;;;;;5.60;1.52;;;;;;;18.21;45.85;101892.41;5013993;28;20302;-67
2022/02/05 06:46:56;;;;;;;6.40;1.60;;;;;;;18.22;45.92;101899.41;5014249;28;20117;-67
2022/02/05 06:49:25;;;;;;;6.22;1.58;;;;;;;18.22;45.85;101896.75;5014513;28;20017;-66
2022/02/05 06:51:51;;;;;;;6.18;1.60;;;;;;;18.23;45.53;101899.31;5014799;28;20022;-68
2022/02/05 06:54:16;;;;;;;5.53;1.77;;;;;;;18.25;45.89;101909.75;5013611;28;20112;-67
2022/02/05 06:56:41;;;;;;;5.53;1.40;;;;;;;18.24;46.26;101900.97;5014593;28;20072;-68
2022/02/05 06:59:07;;;;;;;3.87;1.33;;;;;;;18.25;46.38;101900.03;5014207;28;20279;-67
2022/02/05 07:01:32;;;;;;;6.75;1.58;;;;;;;18.27;46.56;101906.06;5013691;28;20289;-68
2022/02/05 07:04:00;;;;;;;6.90;1.73;;;;;;;18.27;46.21;101913.13;5014340;28;20080;-67
2022/02/05 07:06:25;;;;;;;7.00;1.60;;;;;;;18.29;46.01;101913.88;5013823;28;20442;-68
2022/02/05 07:08:51;;;;;;;6.00;1.60;;;;;;;18.31;46.12;101917.28;5013438;28;20030;-68
2022/02/05 07:11:16;;;;;;;5.40;1.58;;;;;;;18.29;46.15;101908.59;5013840;28;20306;-67
2022/02/05 07:13:41;;;;;;;7.57;2.10;;;;;;;18.30;46.71;101908.50;5013872;28;20076;-70
2022/02/05 07:16:23;;;;;;;5.78;2.05;;;;;;;18.30;45.29;101928.78;5013087;28;20033;-68
2022/02/05 07:19:10;;;;;;;6.88;1.90;;;;;;;18.31;46.19;101930.47;5013898;28;20069;-68
2022/02/05 07:21:43;;;;;;;5.40;1.63;;;;;;;18.31;46.46;101931.31;5013255;28;20446;-67
2022/02/05 07:24:22;;;;;;;6.77;1.50;;;;;;;18.32;46.88;101926.88;5013593;28;20050;-65
2022/02/05 07:29:31;;;;;;;5.53;1.33;;;;;;;18.39;46.36;101943.13;5013300;28;20092;-67
2022/02/05 07:32:01;;;;;;;6.13;1.50;;;;;;;18.39;46.37;101936.09;5013721;28;20046;-69
2022/02/05 07:34:32;;;;;;;6.55;1.55;;;;;;;18.42;46.60;101946.44;5013258;28;20286;-68
2022/02/05 07:37:01;;;;;;;7.15;1.67;;;;;;;18.45;46.37;101950.66;5013032;28;20026;-68
2022/02/05 07:39:29;;;;;;;5.70;1.70;;;;;;;18.48;46.45;101945.19;5013069;28;20581;-68
2022/02/05 07:41:55;;;;;;;5.43;1.40;;;;;;;18.50;46.29;101951.22;5013709;28;20026;-68
2022/02/05 07:44:21;;;;;;;5.20;1.50;;;;;;;18.51;46.50;101944.16;5012423;28;20042;-69
2022/02/05 07:46:50;;;;;;;6.30;1.50;;;;;;;18.54;46.17;101946.59;5013382;28;20080;-69
2022/02/05 07:49:18;;;;;;;5.18;1.50;;;;;;;18.55;46.17;101950.91;5012305;28;20021;-69
2022/02/05 07:51:44;;;;;;;5.10;1.33;;;;;;;18.56;46.45;101964.00;5013411;28;20125;-68
2022/02/05 07:54:12;;;;;;;7.03;1.98;;;;;;;18.57;47.00;101960.44;5013237;28;20037;-68
2022/02/05 07:56:48;;;;;;;5.38;1.48;;;;;;;18.57;46.67;101965.72;5012606;28;20080;-68
2022/02/05 07:59:18;;;;;;;3.85;1.20;;;;;;;18.58;46.97;101962.13;5013072;28;20030;-66
2022/02/05 08:01:44;;;;;;;6.43;1.60;;;;;;;18.59;46.45;101970.88;5013116;28;20116;-67
2022/02/05 08:04:10;;;;;;;6.38;1.67;;;;;;;18.57;44.07;101972.78;5012216;28;20109;-68
2022/02/05 08:06:36;;;;;;;5.75;2.15;;;;;;;18.57;45.45;101972.78;5013294;28;20572;-68
2022/02/05 08:09:15;;;;;;;5.78;1.48;;;;;;;18.57;46.17;101978.06;5013327;28;20034;-68
2022/02/05 08:11:46;;;;;;;5.93;1.63;;;;;;;18.59;46.77;101981.44;5012389;28;20045;-68
2022/02/05 08:14:12;;;;;;;5.68;1.60;;;;;;;18.60;46.34;101969.94;5012354;28;20112;-67
2022/02/05 08:17:00;;;;;;;4.93;1.35;;;;;;;18.62;46.74;101981.25;5012756;28;20561;-68
2022/02/05 08:19:25;;;;;;;5.78;1.48;;;;;;;18.62;45.88;101974.16;5011956;28;20042;-68
2022/02/05 08:21:51;;;;;;;7.93;1.67;;;;;;;18.64;46.10;101972.28;5013008;28;20026;-68
2022/02/05 08:24:17;;;;;;;7.63;1.70;;;;;;;18.67;46.37;101968.59;5012371;28;20080;-69
2022/02/05 08:26:45;;;;;;;6.88;1.73;;;;;;;18.66;46.52;101962.47;5012745;28;20030;-67
2022/02/05 08:29:12;;;;;;;4.50;1.50;;;;;;;18.68;46.32;101965.84;5012711;28;20061;-69
2022/02/05 08:31:38;;;;;;;6.40;1.75;;;;;;;18.71;46.36;101963.94;5012039;28;20603;-69
2022/02/05 08:34:03;;;;;;;4.95;1.42;;;;;;;18.71;46.50;101972.72;5012928;28;20061;-69
2022/02/05 08:36:38;;;;;;;7.25;1.65;;;;;;;18.73;46.77;101976.09;5012346;28;20159;-69
2022/02/05 08:39:03;;;;;;;5.03;1.52;;;;;;;18.75;46.55;101979.47;5011953;28;20108;-70
2022/02/05 08:41:28;;;;;;;5.93;1.65;;;;;;;18.77;47.29;101982.03;5012233;28;20060;-69
2022/02/05 08:43:54;;;;;;;5.13;1.30;;;;;;;18.77;46.69;101984.66;5012484;28;20038;-69
2022/02/05 08:46:19;;;;;;;7.60;1.60;;;;;;;18.80;46.98;101980.06;5011542;28;20295;-73
2022/02/05 08:48:50;;;;;;;5.77;1.30;;;;;;;18.82;46.54;101982.59;5012618;28;20295;-70
2022/02/05 08:51:15;;;;;;;4.68;1.50;;;;;;;18.85;46.77;101974.50;5012499;28;20304;-69
2022/02/05 08:53:42;;;;;;;6.38;1.48;;;;;;;18.86;46.84;101976.16;5011833;28;20382;-68
2022/02/05 08:56:07;;;;;;;6.32;1.58;;;;;;;18.85;47.02;101963.94;5012355;28;20022;-69
2022/02/05 08:58:33;;;;;;;4.55;1.60;;;;;;;18.85;47.14;101969.22;5012456;28;20033;-68
2022/02/05 09:04:09;;;;;;;4.75;1.50;;;;;;;18.88;46.71;101973.44;5011926;28;20046;-66
2022/02/05 09:06:39;;;;;;;5.00;1.40;;;;;;;18.90;46.71;101974.16;5011609;28;20033;-71
2022/02/05 09:09:17;;;;;;;6.43;1.60;;;;;;;18.87;45.24;101985.81;5012845;28;20035;-69
2022/02/05 09:11:53;;;;;;;6.68;1.50;;;;;;;18.87;46.33;101979.66;5012529;28;20038;-70
2022/02/05 09:16:53;;;;;;;6.90;1.50;;;;;;;18.86;46.87;101986.75;5012692;28;20054;-70
2022/02/05 09:19:18;;;;;;;6.88;1.80;;;;;;;18.88;47.08;101992.75;5012256;28;20041;-70
2022/02/05 09:21:44;;;;;;;8.45;2.15;;;;;;;18.90;47.28;102004.09;5011616;28;20077;-71
2022/02/05 09:24:09;;;;;;;4.60;1.50;;;;;;;18.91;45.89;102007.56;5011961;28;20077;-68
2022/02/05 09:26:36;;;;;;;8.63;1.60;;;;;;;18.89;45.78;102010.31;5016136;28;20026;-67
2022/02/05 09:29:10;;;;;;;4.97;1.35;;;;;;;18.92;46.97;102017.19;5015233;28;20033;-67
2022/02/05 09:31:36;;;;;;;4.75;1.35;;;;;;;18.92;47.11;102019.84;5015863;28;20496;-67
2022/02/05 09:34:04;;;;;;;5.82;1.65;;;;;;;18.92;46.87;102019.84;5016010;28;20046;-68
2022/02/05 09:36:30;;;;;;;5.28;1.42;;;;;;;18.95;47.42;102017.00;5014654;28;20038;-66
2022/02/05 09:38:56;;;;;;;5.63;1.48;;;;;;;18.95;47.32;102020.47;5015748;28;20048;-66
2022/02/05 09:41:23;;;;;;;4.00;1.30;;;;;;;18.95;47.26;102031.03;5015308;28;20466;-67
2022/02/05 09:43:49;;;;;;;8.85;2.00;;;;;;;18.96;47.24;102026.59;5014606;28;20045;-67
2022/02/05 09:46:16;;;;;;;6.45;1.65;;;;;;;18.95;47.27;102023.13;5015842;28;20022;-67
2022/02/05 09:48:44;;;;;;;5.38;1.40;;;;;;;18.97;46.88;102020.38;5014861;28;20386;-66
2022/02/05 09:51:16;;;;;;;6.53;1.45;;;;;;;18.97;46.69;102028.28;5015245;28;20069;-67
2022/02/05 09:53:46;;;;;;;7.22;1.70;;;;;;;18.96;47.14;102014.25;5015619;28;20049;-67
2022/02/05 09:56:11;;;;;;;4.80;1.30;;;;;;;18.97;47.00;102023.00;5014344;28;20025;-66
2022/02/05 09:58:39;;;;;;;6.53;1.87;;;;;;;18.99;47.00;102026.38;5015298;28;20029;-67
2022/02/05 10:01:19;;;;;;;5.80;1.42;;;;;;;18.99;47.40;102018.47;5015665;28;20287;-67
2022/02/05 10:03:47;;;;;;;6.47;1.33;;;;;;;19.02;47.41;102018.25;5014662;28;20374;-68
2022/02/05 10:06:22;;;;;;;5.68;1.80;;;;;;;19.00;47.35;102013.06;5014976;28;20504;-68
2022/02/05 10:09:00;;;;;;;4.82;1.15;;;;;;;19.00;47.33;102014.88;5015362;28;20041;-68
2022/02/05 10:11:29;;;;;;;6.85;1.48;;;;;;;19.00;47.35;102020.16;5014254;28;20152;-70
2022/02/05 10:13:55;;;;;;;7.35;1.70;;;;;;;18.96;47.47;102010.75;5015313;28;20033;-69
2022/02/05 10:16:30;;;;;;;7.68;1.63;;;;;;;18.98;46.97;102006.22;5015054;28;20022;-69
2022/02/05 10:18:58;;;;;;;7.40;1.65;;;;;;;18.98;47.62;102004.41;5014331;28;20105;-70
2022/02/05 10:21:28;;;;;;;6.88;1.38;;;;;;;19.00;47.41;102006.97;5014969;28;20409;-69
2022/02/05 10:24:05;;;;;;;7.45;1.70;;;;;;;18.99;47.76;102011.41;5014464;28;20022;-69
2022/02/05 10:26:34;;;;;;;7.15;1.70;;;;;;;18.98;47.28;102007.06;5014700;28;20026;-70
2022/02/05 10:29:14;;;;;;;7.18;1.63;;;;;;;18.99;47.34;102010.53;5014928;28;20037;-67
2022/02/05 10:32:13;;;;;;;4.75;1.38;;;;;;;18.98;47.18;102006.22;5014209;28;20037;-68
2022/02/05 10:35:08;;;;;;;5.40;1.27;;;;;;;18.99;46.87;102010.53;5015054;28;20022;-70
2022/02/05 10:37:47;;;;;;;5.22;1.45;;;;;;;18.98;46.47;102009.69;5014695;28;20084;-67
2022/02/05 10:40:20;;;;;;;5.70;1.58;;;;;;;18.97;46.86;102012.44;5013776;28;20378;-67
2022/02/05 10:43:01;;;;;;;6.30;1.95;;;;;;;18.97;47.17;102002.72;5014523;28;20104;-66
2022/02/05 10:45:49;;;;;;;6.05;1.42;;;;;;;18.95;47.29;101996.69;5013704;28;20029;-67
2022/02/05 10:48:20;;;;;;;8.38;1.60;;;;;;;18.95;47.36;102004.63;5014192;28;20038;-67
2022/02/05 10:50:47;;;;;;;5.90;1.80;;;;;;;18.95;47.05;102001.97;5014673;28;20038;-67
2022/02/05 10:53:24;;;;;;;7.07;1.52;;;;;;;18.94;46.68;101992.34;5013605;28;20045;-68
2022/02/05 11:07:02;;;;;;;7.43;1.98;;;;;;;18.85;46.93;101993.81;5013352;28;20065;-68
2022/02/05 11:09:46;;;;;;;6.18;1.60;;;;;;;18.87;47.22;101998.13;5013856;28;20053;-67
2022/02/05 11:18:09;;;;;;;5.72;1.42;;;;;;;18.89;46.60;102004.19;5005550;28;20046;-66
2022/02/05 11:20:35;;;;;;;6.70;1.70;;;;;;;18.89;46.41;101994.47;5013406;28;20049;-67
2022/02/05 11:23:06;;;;;;;5.28;1.50;;;;;;;18.89;46.59;101994.47;5014013;28;20029;-67
2022/02/05 11:25:35;;;;;;;6.30;1.80;;;;;;;18.89;46.41;101989.19;5013484;28;20409;-65
2022/02/05 11:28:01;;;;;;;4.32;1.25;;;;;;;18.90;46.42;101990.88;5013334;28;20018;-68
2022/02/05 11:30:43;;;;;;;6.38;1.60;;;;;;;18.91;46.26;101989.06;5013550;28;20034;-66
2022/02/05 11:33:29;;;;;;;6.07;1.60;;;;;;;18.92;46.38;101993.41;5013568;28;20022;-66
2022/02/05 11:36:54;;;;;;;6.50;1.55;;;;;;;18.92;46.27;101994.25;5013082;28;20036;-68
2022/02/05 11:39:01;;;;;;;6.07;1.83;;;;;;;18.93;46.43;101984.53;5013116;28;20042;-68
2022/02/05 11:41:32;;;;;;;6.70;1.70;;;;;;;18.93;46.42;101979.25;5012635;28;20073;-68
2022/02/05 11:44:22;;;;;;;5.50;1.65;;;;;;;18.92;47.34;101981.06;5013476;28;20042;-69
2022/02/05 11:47:24;;;;;;;6.78;1.60;;;;;;;18.93;47.30;101993.31;5013421;28;20061;-68
2022/02/05 11:49:52;;;;;;;8.15;2.00;;;;;;;18.89;44.19;101985.69;5030951;28;20072;-67
2022/02/05 11:52:35;;;;;;;6.07;1.48;;;;;;;18.87;45.98;101988.44;5013152;28;20493;-66
2022/02/05 11:55:05;;;;;;;5.95;1.40;;;;;;;18.87;46.50;101984.94;5013368;28;20045;-68
2022/02/05 11:57:43;;;;;;;5.53;1.70;;;;;;;18.89;46.58;101986.53;5012526;28;20060;-68
2022/02/05 12:00:20;;;;;;;5.50;1.40;;;;;;;18.90;46.79;101969.75;5012866;28;20474;-67
2022/02/05 12:02:58;;;;;;;7.95;1.45;;;;;;;18.91;46.53;101960.03;5012591;28;20053;-66
2022/02/05 12:05:28;;;;;;;6.25;1.55;;;;;;;18.92;47.14;101949.34;5012780;28;20030;-66
2022/02/05 12:08:06;;;;;;;7.85;1.50;;;;;;;18.93;47.10;101947.53;5013477;28;20034;-66
2022/02/05 12:10:40;;;;;;;6.60;1.83;;;;;;;18.92;47.62;101933.50;5012544;28;20084;-65
2022/02/05 12:13:40;;;;;;;5.65;1.67;;;;;;;18.93;47.12;101932.56;5013244;28;20018;-66
2022/02/05 12:16:10;;;;;;;7.57;1.83;;;;;;;18.94;47.38;101933.41;5014808;28;20493;-66
2022/02/05 12:19:11;;;;;;;6.15;1.50;;;;;;;18.94;46.89;101933.41;5012359;28;20413;-66
2022/02/05 12:21:56;;;;;;;4.75;1.40;;;;;;;18.93;45.90;101939.63;5012946;28;20037;-67
2022/02/05 12:24:40;;;;;;;6.13;1.73;;;;;;;18.91;47.05;101934.44;5011718;28;20056;-67
2022/02/05 12:27:35;;;;;;;5.10;1.33;;;;;;;18.93;46.98;101944.91;5016453;28;20022;-67
2022/02/05 12:30:38;;;;;;;5.25;1.58;;;;;;;18.95;47.15;101943.88;5013786;28;20030;-66
2022/02/05 12:33:06;;;;;;;5.25;1.40;;;;;;;18.95;47.17;101935.09;5012987;28;20057;-67
2022/02/05 12:35:33;;;;;;;5.45;1.50;;;;;;;18.94;47.15;101936.88;5013380;28;20083;-68
2022/02/05 12:38:06;;;;;;;6.13;1.75;;;;;;;18.94;47.20;101934.22;5012506;28;20249;-68
2022/02/05 12:40:43;;;;;;;5.68;1.38;;;;;;;18.94;46.83;101928.13;5012573;28;20026;-68
2022/02/05 12:43:08;;;;;;;5.78;1.42;;;;;;;18.95;46.90;101929.81;5012268;28;20049;-68
2022/02/05 12:45:50;;;;;;;5.80;1.60;;;;;;;18.95;46.51;101925.38;5011988;28;20021;-68
2022/02/05 12:48:22;;;;;;;5.20;1.73;;;;;;;18.95;46.83;101912.16;5012752;28;20049;-68
2022/02/05 12:50:48;;;;;;;6.57;1.33;;;;;;;18.96;47.21;101916.50;5012610;28;20066;-68
2022/02/05 12:53:14;;;;;;;5.88;1.60;;;;;;;18.94;47.29;101913.09;5011657;28;20394;-68
2022/02/05 12:55:45;;;;;;;6.07;1.30;;;;;;;18.98;47.17;101906.69;5013087;28;20155;-68
2022/02/05 12:58:11;;;;;;;5.20;1.45;;;;;;;19.00;46.96;101907.41;5013403;28;20029;-68
2022/02/05 13:00:40;;;;;;;6.15;1.33;;;;;;;19.01;46.98;101897.72;5017942;28;20037;-67
2022/02/05 13:03:24;;;;;;;6.20;1.45;;;;;;;19.05;46.78;101914.19;5017019;28;20101;-67
2022/02/05 13:05:50;;;;;;;;;;;;;;;19.04;46.62;101905.41;5016496;28;20025;-68
2022/02/05 13:08:15;;;;;;;5.18;1.33;;;;;;;19.07;46.82;101902.53;5016558;28;19918;-68
2022/02/05 13:10:45;;;;;;;6.70;1.63;;;;;;;19.09;46.75;101908.59;5017056;28;20030;-68
2022/02/05 13:13:11;;;;;;;4.43;1.55;;;;;;;19.10;47.07;101904.97;5016014;28;20022;-68
2022/02/05 13:15:39;;;;;;;5.75;1.42;;;;;;;19.12;47.02;101895.16;5016952;28;20168;-68
2022/02/05 13:18:15;;;;;;;6.43;1.40;;;;;;;19.11;47.17;101890.00;5016687;28;20037;-68
2022/02/05 13:34:12;;;;;;;8.45;1.80;;;;;;;19.12;46.81;101878.44;5015659;28;20493;-68
2022/02/05 13:39:29;;;;;;;4.22;1.30;;;;;;;19.16;46.70;101862.28;5016002;28;20394;-67
2022/02/05 13:42:01;;;;;;;5.75;1.60;;;;;;;19.19;46.50;101858.59;5015722;28;20155;-67
2022/02/05 13:44:55;;;;;;;5.68;1.38;;;;;;;19.23;46.32;101853.94;5015542;28;20129;-63
2022/02/05 13:47:23;;;;;;;8.18;1.25;;;;;;;19.23;46.57;101849.47;5015607;28;20064;-67
2022/02/05 13:50:09;;;;;;;6.00;1.42;;;;;;;19.26;46.51;101856.34;5015347;28;20500;-64
2022/02/05 13:52:42;;;;;;;5.97;1.40;;;;;;;19.24;45.88;101853.81;5016012;28;20116;-67
2022/02/05 13:55:20;;;;;;;8.52;1.67;;;;;;;19.29;46.09;101864.06;5015077;28;20045;-66
2022/02/05 13:58:06;;;;;;;5.88;1.40;;;;;;;19.32;45.85;101867.34;5015877;28;20494;-65
2022/02/05 14:00:52;;;;;;;7.07;1.40;;;;;;;19.26;45.63;101866.94;5016139;28;20104;-68
2022/02/05 14:03:28;;;;;;;7.07;1.38;;;;;;;19.24;45.94;101864.38;5015476;28;20026;-68
2022/02/05 14:06:04;;;;;;;6.35;1.63;;;;;;;19.25;45.86;101863.44;5016633;28;20454;-67
2022/02/05 14:08:33;;;;;;;5.05;1.42;;;;;;;19.34;46.12;101848.72;5015855;28;20088;-67
2022/02/05 14:11:01;;;;;;;5.80;1.60;;;;;;;19.45;45.50;101845.31;5014112;28;20028;-66
2022/02/05 14:13:27;;;;;;;7.85;1.70;;;;;;;19.48;44.99;101851.22;5015599;28;20113;-66
2022/02/05 14:16:01;;;;;;;5.35;1.42;;;;;;;19.60;44.94;101843.38;5015778;28;20553;-68